Time;durP1;ratioP1;P1;durP2;ratioP2;P2;SDS_P1;SDS_P2;PMS_P1;PMS_P2;Temp;Humidity;BMP_temperature;BMP_pressure;BME280_temperature;BME280_humidity;BME280_pressure;Samples;Min_cycle;Max_cycle;Signal;HPM_P1;HPM_P2
2022/12/05 00:00:31;;;;;;;24.92;15.52;;;;;;;;;;5024862;28;20041;-55
2022/12/05 00:02:57;;;;;;;27.00;15.30;;;;;;;;;;5022713;28;20050;-56
2022/12/05 00:05:24;;;;;;;31.45;16.65;;;;;;;;;;5023106;28;20041;-55
2022/12/05 00:07:50;;;;;;;24.90;15.00;;;;;;;;;;5020619;28;20045;-55
2022/12/05 00:10:17;;;;;;;27.15;16.10;;;;;;;;;;5020934;28;20064;-56
2022/12/05 00:12:43;;;;;;;25.40;15.27;;;;;;;;;;5017119;28;20136;-53
2022/12/05 00:15:11;;;;;;;27.95;16.52;;;;;;;;;;5021713;28;20041;-54
2022/12/05 00:17:39;;;;;;;25.73;14.82;;;;;;;;;;5013084;28;20056;-55
2022/12/05 00:20:06;;;;;;;26.05;16.00;;;;;;;;;;5014251;28;20487;-55
2022/12/05 00:22:34;;;;;;;24.13;13.77;;;;;;;;;;5018521;28;20049;-55
2022/12/05 00:25:00;;;;;;;27.55;15.73;;;;;;;;;;5020407;28;20045;-56
2022/12/05 00:27:27;;;;;;;27.33;16.00;;;;;;;;;;5021422;28;20051;-54
2022/12/05 00:29:53;;;;;;;25.75;15.02;;;;;;;;;;5021956;28;20048;-54
2022/12/05 00:32:20;;;;;;;26.15;15.63;;;;;;;;;;5015876;28;20053;-56
2022/12/05 00:34:46;;;;;;;27.83;16.23;;;;;;;;;;5017336;28;20136;-56
2022/12/05 00:37:12;;;;;;;26.17;14.65;;;;;;;;;;5021090;28;20045;-56
2022/12/05 00:39:39;;;;;;;22.83;13.10;;;;;;;;;;5018022;28;20050;-56
2022/12/05 00:42:05;;;;;;;24.63;13.38;;;;;;;;;;5006599;28;20050;-56
2022/12/05 00:44:31;;;;;;;24.65;13.38;;;;;;;;;;5009565;28;20046;-55
2022/12/05 00:46:58;;;;;;;25.65;14.80;;;;;;;;;;5014148;28;20049;-55
2022/12/05 00:49:24;;;;;;;25.33;13.98;;;;;;;;;;5020400;28;20049;-56
2022/12/05 00:51:50;;;;;;;22.08;13.77;;;;;;;;;;5015839;28;20041;-56
2022/12/05 00:54:17;;;;;;;23.42;13.60;;;;;;;;;;5020419;28;20049;-55
2022/12/05 00:56:43;;;;;;;23.60;14.43;;;;;;;;;;5016157;28;20065;-56
2022/12/05 00:59:14;;;;;;;24.63;13.27;;;;;;;;;;5013784;28;20052;-56
2022/12/05 01:01:41;;;;;;;27.35;15.13;;;;;;;;;;5017288;28;20053;-55
2022/12/05 01:04:25;;;;;;;24.83;14.60;;;;;;;;;;5010946;28;20121;-56
2022/12/05 01:06:56;;;;;;;22.33;14.02;;;;;;;;;;5014495;28;20049;-55
2022/12/05 01:09:23;;;;;;;23.15;13.82;;;;;;;;;;5022826;28;20049;-55
2022/12/05 01:11:49;;;;;;;25.17;14.32;;;;;;;;;;5020623;28;20064;-56
2022/12/05 01:14:16;;;;;;;23.52;14.27;;;;;;;;;;5020586;28;20061;-56
2022/12/05 01:16:44;;;;;;;21.83;13.02;;;;;;;;;;5020538;28;20049;-56
2022/12/05 01:19:13;;;;;;;20.90;13.15;;;;;;;;;;5023715;28;20060;-56
2022/12/05 01:21:40;;;;;;;26.80;14.05;;;;;;;;;;5021931;28;20579;-55
2022/12/05 01:24:07;;;;;;;21.30;12.50;;;;;;;;;;5023395;28;20056;-55
2022/12/05 01:26:33;;;;;;;21.80;12.43;;;;;;;;;;5025898;28;20057;-56
2022/12/05 01:29:00;;;;;;;23.90;13.95;;;;;;;;;;5026445;28;20049;-55
2022/12/05 01:31:28;;;;;;;22.45;13.70;;;;;;;;;;5016050;28;20100;-55
2022/12/05 01:33:56;;;;;;;26.52;14.32;;;;;;;;;;5020863;28;20041;-55
2022/12/05 01:36:23;;;;;;;23.42;13.15;;;;;;;;;;5016853;28;20052;-55
2022/12/05 01:38:50;;;;;;;23.90;13.93;;;;;;;;;;5019543;28;20064;-56
2022/12/05 01:41:24;;;;;;;24.80;14.13;;;;;;;;;;5022637;28;20052;-56
2022/12/05 01:43:54;;;;;;;29.17;14.60;;;;;;;;;;5024358;28;20061;-56
2022/12/05 01:46:21;;;;;;;24.20;14.32;;;;;;;;;;5017298;28;20045;-55
2022/12/05 01:48:48;;;;;;;21.65;12.85;;;;;;;;;;5023949;28;20132;-55
2022/12/05 01:51:14;;;;;;;24.88;14.80;;;;;;;;;;5020806;28;20052;-56
2022/12/05 01:53:41;;;;;;;25.88;14.70;;;;;;;;;;5022870;28;20050;-55
2022/12/05 01:56:10;;;;;;;23.40;14.68;;;;;;;;;;5024039;28;20434;-56
2022/12/05 01:58:38;;;;;;;25.55;15.43;;;;;;;;;;5016151;28;20050;-55
2022/12/05 02:01:04;;;;;;;27.55;15.35;;;;;;;;;;5013470;28;20046;-57
2022/12/05 02:03:30;;;;;;;27.52;16.00;;;;;;;;;;5027707;28;20091;-56
2022/12/05 02:05:57;;;;;;;25.15;14.27;;;;;;;;;;5013487;28;20048;-55
2022/12/05 02:08:26;;;;;;;26.73;16.45;;;;;;;;;;5017767;28;20065;-55
2022/12/05 02:10:55;;;;;;;27.25;17.02;;;;;;;;;;5012473;28;20049;-56
2022/12/05 02:13:21;;;;;;;23.67;14.73;;;;;;;;;;5022851;28;20052;-56
2022/12/05 02:16:08;;;;;;;25.63;16.20;;;;;;;;;;5017427;28;20045;-56
2022/12/05 02:18:53;;;;;;;27.08;15.07;;;;;;;;;;5001320;28;20049;-55
2022/12/05 02:21:28;;;;;;;27.30;14.30;;;;;;;;;;5025814;28;20414;-55
2022/12/05 02:24:18;;;;;;;26.10;14.60;;;;;;;;;;5018448;28;20053;-56
2022/12/05 02:26:47;;;;;;;25.52;13.40;;;;;;;;;;5012466;28;20049;-54
2022/12/05 02:29:25;;;;;;;24.92;15.27;;;;;;;;;;5015541;28;20053;-55
2022/12/05 02:32:03;;;;;;;25.35;14.13;;;;;;;;;;5029604;28;20057;-55
2022/12/05 02:34:35;;;;;;;23.92;13.55;;;;;;;;;;5038211;28;20054;-55
2022/12/05 02:37:08;;;;;;;25.00;14.15;;;;;;;;;;5017153;28;20491;-54
2022/12/05 02:39:39;;;;;;;22.27;13.38;;;;;;;;;;5017287;28;20053;-55
2022/12/05 02:42:19;;;;;;;25.58;14.60;;;;;;;;;;5022083;28;20044;-55
2022/12/05 02:44:57;;;;;;;23.25;13.32;;;;;;;;;;5020856;28;20049;-55
2022/12/05 02:47:25;;;;;;;24.48;13.93;;;;;;;;;;5016372;28;20133;-55
2022/12/05 02:49:52;;;;;;;22.48;13.00;;;;;;;;;;5020418;28;20132;-55
2022/12/05 02:52:20;;;;;;;25.15;14.65;;;;;;;;;;5020447;28;20065;-55
2022/12/05 02:54:47;;;;;;;31.00;14.23;;;;;;;;;;5021876;28;20045;-55
2022/12/05 02:57:14;;;;;;;26.23;13.50;;;;;;;;;;5014592;28;20687;-55
2022/12/05 02:59:40;;;;;;;22.00;13.60;;;;;;;;;;5019477;28;20447;-55
2022/12/05 03:02:08;;;;;;;22.65;12.82;;;;;;;;;;5016820;28;20085;-56
2022/12/05 03:04:34;;;;;;;26.95;14.93;;;;;;;;;;5017890;28;20053;-55
2022/12/05 03:07:05;;;;;;;21.85;12.15;;;;;;;;;;5014700;28;20057;-55
2022/12/05 03:09:38;;;;;;;24.33;14.23;;;;;;;;;;5019086;28;20514;-56
2022/12/05 03:12:07;;;;;;;22.55;13.55;;;;;;;;;;5017808;28;20076;-56
2022/12/05 03:14:46;;;;;;;24.45;13.48;;;;;;;;;;5016577;28;20054;-55
2022/12/05 03:17:15;;;;;;;23.02;12.50;;;;;;;;;;5016365;28;20053;-55
2022/12/05 03:19:52;;;;;;;21.63;13.25;;;;;;;;;;5014095;28;20057;-55
2022/12/05 03:22:39;;;;;;;19.15;10.93;;;;;;;;;;5016968;28;20544;-55
2022/12/05 03:25:06;;;;;;;25.58;12.88;;;;;;;;;;5018865;28;20419;-56
2022/12/05 03:27:45;;;;;;;22.80;12.93;;;;;;;;;;5017464;28;20663;-57
2022/12/05 03:30:16;;;;;;;22.50;13.00;;;;;;;;;;5019178;28;20057;-56
2022/12/05 03:33:15;;;;;;;23.00;12.98;;;;;;;;;;5018218;28;21027;-56
2022/12/05 03:35:46;;;;;;;23.48;13.35;;;;;;;;;;4999786;28;20053;-55
2022/12/05 03:38:14;;;;;;;23.45;13.32;;;;;;;;;;5018498;28;20132;-55
2022/12/05 03:40:46;;;;;;;23.73;13.07;;;;;;;;;;5015003;28;20068;-55
2022/12/05 03:43:12;;;;;;;21.10;12.70;;;;;;;;;;5021236;28;20054;-54
2022/12/05 03:46:14;;;;;;;21.77;12.90;;;;;;;;;;5014842;28;20466;-55
2022/12/05 03:48:46;;;;;;;17.83;10.60;;;;;;;;;;4976574;28;20050;-56
2022/12/05 03:51:14;;;;;;;23.30;12.20;;;;;;;;;;4974714;28;20062;-54
2022/12/05 03:53:46;;;;;;;24.42;13.02;;;;;;;;;;4980501;28;20091;-56
2022/12/05 03:56:34;;;;;;;22.95;13.25;;;;;;;;;;4974711;28;20064;-69
2022/12/05 03:59:12;;;;;;;24.13;12.23;;;;;;;;;;4977700;28;20045;-57
2022/12/05 04:01:39;;;;;;;24.15;13.20;;;;;;;;;;4970881;28;20427;-55
2022/12/05 04:04:09;;;;;;;19.30;11.40;;;;;;;;;;4971891;28;20054;-55
2022/12/05 04:06:37;;;;;;;19.92;11.52;;;;;;;;;;4974104;28;20628;-56
2022/12/05 04:09:06;;;;;;;21.25;12.73;;;;;;;;;;4973317;28;20058;-56
2022/12/05 04:11:40;;;;;;;20.17;11.45;;;;;;;;;;4972871;28;20125;-55
2022/12/05 04:14:08;;;;;;;18.88;10.55;;;;;;;;;;4975244;28;20069;-56
2022/12/05 04:22:28;;;;;;;21.95;11.20;;;;;;;;;;4994230;28;20615;-55
2022/12/05 04:27:40;;;;;;;;;;;;;;;;;;5012755;28;20046;-54
2022/12/05 04:30:09;;;;;;;20.65;11.75;;;;;;;;;;5014246;28;19925;-55
2022/12/05 04:32:50;;;;;;;19.00;11.63;;;;;;;;;;5014739;28;20052;-55
2022/12/05 04:35:43;;;;;;;17.67;10.65;;;;;;;;;;5020161;28;20490;-55
2022/12/05 04:38:16;;;;;;;20.95;11.02;;;;;;;;;;5017520;28;20041;-54
2022/12/05 04:40:51;;;;;;;16.10;9.63;;;;;;;;;;5016065;28;20050;-55
2022/12/05 04:43:19;;;;;;;15.82;9.93;;;;;;;;;;5017124;28;20045;-55
2022/12/05 04:45:46;;;;;;;16.40;9.77;;;;;;;;;;5016045;28;20049;-54
2022/12/05 04:48:14;;;;;;;18.30;11.27;;;;;;;;;;5019566;28;20053;-56
2022/12/05 04:50:41;;;;;;;17.92;11.13;;;;;;;;;;5019653;28;20518;-55
2022/12/05 04:53:09;;;;;;;18.40;10.35;;;;;;;;;;5020166;28;20115;-56
2022/12/05 04:55:38;;;;;;;19.92;10.82;;;;;;;;;;5018202;28;20049;-56
2022/12/05 04:58:07;;;;;;;18.50;10.15;;;;;;;;;;5019676;28;20129;-55
2022/12/05 05:00:36;;;;;;;18.02;11.07;;;;;;;;;;5019755;28;20044;-56
2022/12/05 05:03:05;;;;;;;15.98;9.65;;;;;;;;;;5021409;28;20053;-77
2022/12/05 05:05:33;;;;;;;15.73;9.75;;;;;;;;;;5016389;28;20061;-55
2022/12/05 05:07:59;;;;;;;17.13;10.20;;;;;;;;;;5015574;28;20053;-56
2022/12/05 05:10:34;;;;;;;20.10;11.48;;;;;;;;;;5018155;28;20132;-55
2022/12/05 05:13:00;;;;;;;16.58;9.65;;;;;;;;;;5017646;28;20045;-55
2022/12/05 05:15:27;;;;;;;19.83;11.95;;;;;;;;;;5013207;28;20056;-55
2022/12/05 05:17:53;;;;;;;16.55;9.50;;;;;;;;;;5017318;28;20058;-55
2022/12/05 05:20:22;;;;;;;20.02;10.88;;;;;;;;;;5013552;28;20058;-56
2022/12/05 05:22:49;;;;;;;17.10;10.73;;;;;;;;;;5020982;28;20064;-55
2022/12/05 05:25:16;;;;;;;17.83;11.57;;;;;;;;;;5014846;28;20057;-55
2022/12/05 05:27:46;;;;;;;17.85;10.50;;;;;;;;;;5017193;28;20467;-56
2022/12/05 05:30:12;;;;;;;17.25;9.57;;;;;;;;;;5020647;28;20061;-55
2022/12/05 05:32:39;;;;;;;17.70;10.55;;;;;;;;;;5014108;28;20076;-56
2022/12/05 05:35:05;;;;;;;18.35;11.05;;;;;;;;;;5018323;28;20625;-55
2022/12/05 05:37:31;;;;;;;14.73;8.77;;;;;;;;;;5007536;28;20054;-56
2022/12/05 05:39:58;;;;;;;18.05;9.82;;;;;;;;;;5014152;28;20045;-54
2022/12/05 05:42:25;;;;;;;16.73;9.57;;;;;;;;;;5023602;28;20051;-56
2022/12/05 05:44:51;;;;;;;19.00;11.30;;;;;;;;;;5020738;28;20411;-55
2022/12/05 05:47:17;;;;;;;16.45;10.55;;;;;;;;;;5021134;28;20052;-55
2022/12/05 05:49:44;;;;;;;19.25;11.00;;;;;;;;;;5013914;28;20041;-55
2022/12/05 05:52:10;;;;;;;17.90;10.90;;;;;;;;;;5016389;28;20053;-55
2022/12/05 05:54:36;;;;;;;17.50;9.88;;;;;;;;;;5017565;28;20498;-55
2022/12/05 05:57:03;;;;;;;20.42;12.32;;;;;;;;;;5021897;28;20506;-55
2022/12/05 05:59:29;;;;;;;17.83;10.20;;;;;;;;;;5024602;28;20040;-55
2022/12/05 06:01:55;;;;;;;19.77;11.70;;;;;;;;;;5027283;28;20046;-54
2022/12/05 06:04:22;;;;;;;24.30;12.30;;;;;;;;;;5026147;28;20060;-55
2022/12/05 06:06:48;;;;;;;19.52;10.38;;;;;;;;;;5024899;28;20060;-64
2022/12/05 06:09:15;;;;;;;19.00;11.07;;;;;;;;;;5013333;28;20046;-54
2022/12/05 06:11:41;;;;;;;20.95;11.35;;;;;;;;;;5012878;28;20050;-55
2022/12/05 06:14:07;;;;;;;20.83;11.60;;;;;;;;;;5023818;28;20186;-56
2022/12/05 06:16:34;;;;;;;16.75;10.55;;;;;;;;;;5024303;28;20052;-55
2022/12/05 06:19:00;;;;;;;18.02;10.68;;;;;;;;;;5019850;28;20140;-56
2022/12/05 06:21:27;;;;;;;17.83;10.15;;;;;;;;;;5017609;28;20046;-55
2022/12/05 06:23:53;;;;;;;20.45;11.52;;;;;;;;;;5021352;28;20044;-56
2022/12/05 06:26:20;;;;;;;19.40;11.55;;;;;;;;;;5016598;28;20743;-55
2022/12/05 06:28:46;;;;;;;19.30;11.27;;;;;;;;;;5018636;28;20455;-56
2022/12/05 06:31:14;;;;;;;17.50;10.75;;;;;;;;;;5013276;28;20054;-55
2022/12/05 06:33:40;;;;;;;19.48;11.32;;;;;;;;;;5018190;28;20511;-53
2022/12/05 06:36:08;;;;;;;17.30;9.90;;;;;;;;;;5018212;28;20042;-53
2022/12/05 06:38:34;;;;;;;16.40;9.48;;;;;;;;;;5024098;28;20045;-54
2022/12/05 06:41:08;;;;;;;23.27;12.18;;;;;;;;;;5015000;28;20056;-57
2022/12/05 06:43:34;;;;;;;16.17;9.70;;;;;;;;;;5019930;28;20049;-56
2022/12/05 06:46:04;;;;;;;18.55;10.18;;;;;;;;;;5016326;28;20057;-55
2022/12/05 06:48:31;;;;;;;21.33;10.65;;;;;;;;;;5012326;28;20100;-55
2022/12/05 06:50:57;;;;;;;19.65;11.10;;;;;;;;;;5026653;28;20491;-55
2022/12/05 06:53:23;;;;;;;17.45;9.65;;;;;;;;;;5018960;28;20495;-56
2022/12/05 06:56:16;;;;;;;17.40;10.13;;;;;;;;;;5019962;28;20056;-56
2022/12/05 06:58:43;;;;;;;17.17;8.45;;;;;;;;;;5017968;28;20049;-55
2022/12/05 07:03:56;;;;;;;15.27;9.13;;;;;;;;;;5018986;28;20047;-54
2022/12/05 07:06:23;;;;;;;15.10;8.60;;;;;;;;;;5023634;28;20072;-55
2022/12/05 07:08:49;;;;;;;16.90;8.70;;;;;;;;;;5015763;28;20046;-55
2022/12/05 07:11:16;;;;;;;19.92;10.27;;;;;;;;;;5019250;28;20042;-54
2022/12/05 07:13:42;;;;;;;18.52;10.48;;;;;;;;;;5024775;28;20049;-54
2022/12/05 07:16:08;;;;;;;15.57;9.68;;;;;;;;;;5016026;28;20049;-54
2022/12/05 07:18:35;;;;;;;16.27;8.90;;;;;;;;;;5016573;28;20045;-63
2022/12/05 07:21:03;;;;;;;15.73;9.30;;;;;;;;;;5019525;28;20050;-55
2022/12/05 07:23:39;;;;;;;18.15;10.40;;;;;;;;;;5020051;28;20065;-55
2022/12/05 07:26:09;;;;;;;10.35;6.88;;;;;;;;;;5017581;28;20050;-56
2022/12/05 07:28:35;;;;;;;12.98;7.63;;;;;;;;;;5015401;28;20061;-54
2022/12/05 07:31:21;;;;;;;12.63;7.80;;;;;;;;;;5017152;28;20052;-54
2022/12/05 07:33:48;;;;;;;11.10;6.45;;;;;;;;;;5007249;28;20119;-55
2022/12/05 07:36:19;;;;;;;11.70;7.93;;;;;;;;;;5018457;28;20045;-54
2022/12/05 07:38:45;;;;;;;12.73;7.65;;;;;;;;;;5021696;28;20060;-55
2022/12/05 07:41:18;;;;;;;12.38;6.43;;;;;;;;;;5014032;28;20612;-55
2022/12/05 07:43:45;;;;;;;11.57;7.68;;;;;;;;;;5017975;28;20053;-56
2022/12/05 07:46:11;;;;;;;9.70;6.10;;;;;;;;;;5017842;28;20786;-56
2022/12/05 07:48:38;;;;;;;13.18;7.30;;;;;;;;;;5021486;28;20045;-55
2022/12/05 07:51:05;;;;;;;9.75;6.22;;;;;;;;;;5016505;28;20408;-56
2022/12/05 07:53:32;;;;;;;11.07;6.63;;;;;;;;;;5019389;28;20059;-56
2022/12/05 07:55:59;;;;;;;10.90;6.50;;;;;;;;;;5014409;28;20065;-55
2022/12/05 07:58:26;;;;;;;8.30;5.03;;;;;;;;;;5016351;28;20084;-67
2022/12/05 08:00:53;;;;;;;10.00;5.38;;;;;;;;;;5018882;28;20076;-56
2022/12/05 08:03:19;;;;;;;9.52;6.00;;;;;;;;;;5022415;28;20037;-56
2022/12/05 08:05:46;;;;;;;8.15;5.15;;;;;;;;;;5020961;28;21876;-56
2022/12/05 08:08:12;;;;;;;7.30;4.85;;;;;;;;;;5018291;28;20045;-56
2022/12/05 08:10:38;;;;;;;8.23;5.50;;;;;;;;;;5017632;28;20054;-56
2022/12/05 08:13:06;;;;;;;9.73;5.15;;;;;;;;;;5017167;28;20065;-56
2022/12/05 08:15:34;;;;;;;7.78;5.03;;;;;;;;;;5010910;28;20476;-57
2022/12/05 08:18:00;;;;;;;6.22;3.70;;;;;;;;;;5017540;28;20054;-56
2022/12/05 08:20:27;;;;;;;5.90;3.70;;;;;;;;;;5014746;28;20046;-56
2022/12/05 08:22:53;;;;;;;8.88;4.45;;;;;;;;;;5014405;28;20075;-56
2022/12/05 08:25:19;;;;;;;10.55;4.57;;;;;;;;;;5015994;28;20045;-56
2022/12/05 08:27:46;;;;;;;7.40;4.15;;;;;;;;;;5019722;28;20046;-56
2022/12/05 08:30:12;;;;;;;7.78;4.00;;;;;;;;;;5022320;28;20052;-55
2022/12/05 08:32:38;;;;;;;5.28;3.90;;;;;;;;;;5013427;28;20041;-56
2022/12/05 08:35:05;;;;;;;5.35;3.35;;;;;;;;;;5016643;28;20045;-56
2022/12/05 08:37:31;;;;;;;6.15;3.70;;;;;;;;;;5019995;28;20046;-57
2022/12/05 08:39:57;;;;;;;6.00;4.10;;;;;;;;;;5013213;28;20507;-55
2022/12/05 08:42:24;;;;;;;5.88;3.63;;;;;;;;;;5016420;28;20086;-56
2022/12/05 08:44:51;;;;;;;4.65;3.33;;;;;;;;;;5017237;28;20077;-56
2022/12/05 08:47:17;;;;;;;6.38;4.05;;;;;;;;;;5019494;28;20056;-56
2022/12/05 08:49:43;;;;;;;4.32;3.75;;;;;;;;;;5018321;28;20049;-56
2022/12/05 08:52:10;;;;;;;4.65;3.55;;;;;;;;;;5019370;28;20042;-55
2022/12/05 08:54:36;;;;;;;5.20;3.50;;;;;;;;;;5016450;28;20048;-55
2022/12/05 08:57:02;;;;;;;5.03;3.05;;;;;;;;;;5016362;28;20046;-55
2022/12/05 08:59:29;;;;;;;6.75;2.97;;;;;;;;;;5016389;28;22142;-55
2022/12/05 09:01:55;;;;;;;4.40;2.90;;;;;;;;;;5020750;28;20041;-55
2022/12/05 09:04:21;;;;;;;6.13;3.55;;;;;;;;;;5017678;28;20165;-56
2022/12/05 09:06:48;;;;;;;3.78;2.88;;;;;;;;;;5016902;28;20044;-55
2022/12/05 09:09:15;;;;;;;2.97;2.33;;;;;;;;;;5014523;28;20052;-55
2022/12/05 09:11:45;;;;;;;3.80;2.60;;;;;;;;;;5021791;28;20049;-55
2022/12/05 09:14:12;;;;;;;6.18;3.28;;;;;;;;;;5015365;28;20503;-55
2022/12/05 09:16:38;;;;;;;3.80;2.78;;;;;;;;;;5018956;28;20041;-55
2022/12/05 09:19:12;;;;;;;3.78;2.55;;;;;;;;;;5014520;28;20041;-54
2022/12/05 09:21:39;;;;;;;4.50;2.85;;;;;;;;;;5019444;28;20518;-56
2022/12/05 09:24:06;;;;;;;4.13;2.35;;;;;;;;;;5016736;28;20515;-53
2022/12/05 09:26:32;;;;;;;3.40;2.30;;;;;;;;;;5018435;28;20049;-55
2022/12/05 09:29:00;;;;;;;3.80;2.63;;;;;;;;;;5019644;28;20056;-55
2022/12/05 09:31:26;;;;;;;4.57;2.88;;;;;;;;;;5022929;28;20045;-57
2022/12/05 09:33:53;;;;;;;3.83;2.63;;;;;;;;;;5020564;28;20574;-54
2022/12/05 09:36:21;;;;;;;2.92;2.20;;;;;;;;;;5016105;28;20149;-55
2022/12/05 09:38:48;;;;;;;3.67;2.22;;;;;;;;;;5018561;28;20056;-55
2022/12/05 09:41:20;;;;;;;3.00;2.10;;;;;;;;;;5025690;28;20049;-56
2022/12/05 09:43:52;;;;;;;4.13;2.10;;;;;;;;;;5022439;28;20045;-55
2022/12/05 09:53:15;;;;;;;2.90;1.90;;;;;;;;;;5013162;28;20040;-56
2022/12/05 09:56:20;;;;;;;4.53;2.35;;;;;;;;;;5025565;28;20083;-55
2022/12/05 10:05:50;;;;;;;3.90;2.50;;;;;;;;;;5024300;28;20061;-56
2022/12/05 10:08:16;;;;;;;3.40;2.25;;;;;;;;;;5012051;28;20050;-57
2022/12/05 10:10:55;;;;;;;4.03;2.60;;;;;;;;;;5021481;28;20049;-57
2022/12/05 10:13:40;;;;;;;6.75;2.80;;;;;;;;;;5017619;28;20947;-57
2022/12/05 10:16:10;;;;;;;3.50;2.83;;;;;;;;;;5016926;28;20060;-57
2022/12/05 10:18:41;;;;;;;4.93;3.28;;;;;;;;;;5017634;28;20111;-57
2022/12/05 10:21:07;;;;;;;5.15;2.85;;;;;;;;;;5020037;28;20049;-57
2022/12/05 10:23:57;;;;;;;3.33;2.55;;;;;;;;;;5022901;28;20042;-57
2022/12/05 10:26:31;;;;;;;4.47;2.50;;;;;;;;;;5021946;28;20773;-57
2022/12/05 10:28:57;;;;;;;3.83;2.50;;;;;;;;;;5021208;28;20072;-56
2022/12/05 10:31:29;;;;;;;3.90;2.92;;;;;;;;;;5021527;28;20041;-57
2022/12/05 10:33:59;;;;;;;4.68;2.60;;;;;;;;;;5024505;28;20560;-57
2022/12/05 10:36:25;;;;;;;4.10;3.15;;;;;;;;;;5017924;28;20053;-57
2022/12/05 10:38:53;;;;;;;4.93;2.85;;;;;;;;;;5023101;28;20041;-56
2022/12/05 10:41:19;;;;;;;6.00;3.17;;;;;;;;;;5018782;28;20044;-55
2022/12/05 10:43:46;;;;;;;6.25;2.92;;;;;;;;;;5024404;28;20041;-56
2022/12/05 10:46:12;;;;;;;5.20;3.78;;;;;;;;;;5018192;28;20049;-55
2022/12/05 10:48:42;;;;;;;5.00;3.03;;;;;;;;;;5023129;28;20132;-55
2022/12/05 10:51:13;;;;;;;3.08;2.20;;;;;;;;;;5021092;28;20049;-56
2022/12/05 10:53:41;;;;;;;5.32;3.22;;;;;;;;;;5019568;28;20392;-57
2022/12/05 10:56:36;;;;;;;5.30;2.83;;;;;;;;;;5013153;28;20046;-57
2022/12/05 10:59:03;;;;;;;5.47;2.83;;;;;;;;;;5002799;28;20049;-57
2022/12/05 11:01:30;;;;;;;5.22;2.95;;;;;;;;;;5018627;28;20041;-57
2022/12/05 11:04:04;;;;;;;11.05;2.42;;;;;;;;;;5014372;28;20527;-55
2022/12/05 11:06:47;;;;;;;4.30;2.65;;;;;;;;;;5021651;28;20084;-57
2022/12/05 11:09:17;;;;;;;7.03;3.25;;;;;;;;;;5019303;28;20061;-57
2022/12/05 11:11:55;;;;;;;5.93;2.35;;;;;;;;;;5021290;28;20135;-57
2022/12/05 11:14:23;;;;;;;4.25;2.70;;;;;;;;;;5014875;28;20706;-59
2022/12/05 11:16:53;;;;;;;5.05;3.08;;;;;;;;;;5018421;28;20042;-58
2022/12/05 11:19:20;;;;;;;3.58;2.22;;;;;;;;;;5012439;28;20041;-59
2022/12/05 11:21:50;;;;;;;3.70;2.08;;;;;;;;;;5017928;28;20071;-59
2022/12/05 11:24:21;;;;;;;5.18;3.05;;;;;;;;;;5013152;28;20037;-60
2022/12/05 11:26:47;;;;;;;3.78;2.53;;;;;;;;;;5017864;28;20107;-59
2022/12/05 11:29:31;;;;;;;2.95;2.28;;;;;;;;;;5017364;28;20060;-59
2022/12/05 11:31:57;;;;;;;4.28;2.70;;;;;;;;;;5014523;28;20049;-57
2022/12/05 11:34:49;;;;;;;3.08;2.03;;;;;;;;;;5020998;28;20055;-59
2022/12/05 11:37:27;;;;;;;6.03;2.38;;;;;;;;;;5017933;28;20056;-59
2022/12/05 11:39:53;;;;;;;5.70;2.63;;;;;;;;;;5012634;28;20053;-58
2022/12/05 11:42:24;;;;;;;3.60;2.35;;;;;;;;;;5019490;28;20052;-58
2022/12/05 11:45:13;;;;;;;4.53;2.78;;;;;;;;;;5016760;28;20132;-58
2022/12/05 11:47:46;;;;;;;3.72;2.17;;;;;;;;;;5020359;28;20060;-58
2022/12/05 11:50:18;;;;;;;5.50;2.90;;;;;;;;;;5023065;28;20064;-58
2022/12/05 11:53:10;;;;;;;3.83;2.47;;;;;;;;;;5019054;28;20063;-58
2022/12/05 11:55:42;;;;;;;4.60;2.45;;;;;;;;;;5022162;28;20053;-58
2022/12/05 11:58:21;;;;;;;4.40;2.60;;;;;;;;;;5016749;28;20060;-57
2022/12/05 12:00:58;;;;;;;5.03;2.97;;;;;;;;;;5019575;28;20803;-56
2022/12/05 12:03:25;;;;;;;5.30;2.55;;;;;;;;;;5024815;28;20064;-57
2022/12/05 12:06:17;;;;;;;4.68;2.20;;;;;;;;;;5022058;28;20045;-57
2022/12/05 12:08:44;;;;;;;4.22;2.72;;;;;;;;;;5017268;28;20049;-56
2022/12/05 12:11:14;;;;;;;3.45;2.28;;;;;;;;;;5014908;28;20384;-58
2022/12/05 12:13:58;;;;;;;5.78;2.85;;;;;;;;;;5026347;28;20076;-60
2022/12/05 12:16:44;;;;;;;7.35;2.45;;;;;;;;;;5018160;28;20052;-57
2022/12/05 12:19:20;;;;;;;6.15;3.10;;;;;;;;;;5012825;28;20172;-57
2022/12/05 12:21:46;;;;;;;3.95;2.67;;;;;;;;;;5016655;28;20041;-58
2022/12/05 12:24:28;;;;;;;7.65;3.22;;;;;;;;;;5021342;28;20052;-56
2022/12/05 12:27:20;;;;;;;4.85;2.13;;;;;;;;;;5018300;28;20049;-64
2022/12/05 12:29:55;;;;;;;3.28;1.63;;;;;;;;;;5016540;28;20045;-59
2022/12/05 12:32:32;;;;;;;6.43;2.75;;;;;;;;;;5016993;28;20052;-58
2022/12/05 12:35:16;;;;;;;7.57;3.45;;;;;;;;;;5015490;28;20160;-59
2022/12/05 12:37:52;;;;;;;3.67;2.35;;;;;;;;;;5015891;28;20137;-56
2022/12/05 12:40:21;;;;;;;7.00;3.13;;;;;;;;;;5017016;28;20045;-54
2022/12/05 12:42:48;;;;;;;4.82;2.63;;;;;;;;;;5016942;28;20048;-56
2022/12/05 12:45:17;;;;;;;5.82;3.35;;;;;;;;;;5018655;28;20042;-57
2022/12/05 12:48:02;;;;;;;5.40;2.67;;;;;;;;;;5015620;28;20053;-55
2022/12/05 12:50:33;;;;;;;7.80;3.28;;;;;;;;;;5015575;28;20396;-56
2022/12/05 12:53:05;;;;;;;5.72;3.30;;;;;;;;;;5013496;28;20054;-56
2022/12/05 12:55:41;;;;;;;4.22;2.58;;;;;;;;;;5021058;28;20046;-57
2022/12/05 12:58:26;;;;;;;5.90;2.83;;;;;;;;;;5019549;28;20053;-56
2022/12/05 13:01:07;;;;;;;8.00;3.95;;;;;;;;;;5017721;28;20051;-55
2022/12/05 13:03:50;;;;;;;5.15;2.45;;;;;;;;;;5021263;28;20123;-56
2022/12/05 13:06:23;;;;;;;4.60;3.10;;;;;;;;;;5019187;28;20140;-56
2022/12/05 13:08:51;;;;;;;8.20;3.83;;;;;;;;;;5019415;28;20052;-56
2022/12/05 13:11:19;;;;;;;9.70;4.70;;;;;;;;;;5020902;28;20057;-56
2022/12/05 13:13:49;;;;;;;6.53;4.30;;;;;;;;;;5023133;28;20060;-53
2022/12/05 13:16:21;;;;;;;6.90;4.22;;;;;;;;;;5025013;28;20046;-56
2022/12/05 13:18:48;;;;;;;9.30;4.35;;;;;;;;;;5014200;28;20093;-55
2022/12/05 13:21:15;;;;;;;5.65;3.30;;;;;;;;;;5021468;28;20045;-55
2022/12/05 13:23:46;;;;;;;7.80;3.75;;;;;;;;;;5018537;28;20049;-55
2022/12/05 13:26:13;;;;;;;5.22;2.90;;;;;;;;;;5021206;28;20523;-55
2022/12/05 13:28:46;;;;;;;7.13;4.20;;;;;;;;;;5017614;28;20882;-58
2022/12/05 13:31:15;;;;;;;10.05;3.67;;;;;;;;;;5026336;28;20376;-58
2022/12/05 13:33:43;;;;;;;7.18;3.50;;;;;;;;;;5020613;28;20049;-56
2022/12/05 13:44:38;;;;;;;8.20;4.43;;;;;;;;;;5003885;28;20045;-58
2022/12/05 13:47:06;;;;;;;10.73;5.10;;;;;;;;;;5015025;28;20499;-57
2022/12/05 13:49:43;;;;;;;8.30;3.75;;;;;;;;;;5013537;28;20045;-55
2022/12/05 13:52:17;;;;;;;6.95;3.53;;;;;;;;;;5016453;28;20045;-58
2022/12/05 13:54:50;;;;;;;9.85;4.38;;;;;;;;;;5018597;28;20753;-58
2022/12/05 13:57:35;;;;;;;5.95;3.83;;;;;;;;;;5013086;28;20049;-59
2022/12/05 14:00:07;;;;;;;7.80;3.85;;;;;;;;;;5015350;28;20399;-56
2022/12/05 14:02:46;;;;;;;9.52;3.97;;;;;;;;;;5018690;28;20053;-57
2022/12/05 14:05:12;;;;;;;5.78;3.05;;;;;;;;;;5016505;28;20045;-56
2022/12/05 14:07:43;;;;;;;8.75;4.40;;;;;;;;;;5016947;28;20049;-57
2022/12/05 14:10:20;;;;;;;5.22;3.15;;;;;;;;;;5020474;28;20554;-57
2022/12/05 14:12:56;;;;;;;5.95;3.85;;;;;;;;;;5019092;28;20050;-57
2022/12/05 14:15:22;;;;;;;;;;;;;;;;;;5017588;28;20049;-57
2022/12/05 14:17:53;;;;;;;9.48;3.47;;;;;;;;;;5012919;28;19925;-56
2022/12/05 14:20:26;;;;;;;11.73;3.58;;;;;;;;;;5019337;28;20060;-57
2022/12/05 14:23:01;;;;;;;7.68;3.05;;;;;;;;;;5015289;28;20048;-57
2022/12/05 14:25:31;;;;;;;6.75;3.58;;;;;;;;;;5018273;28;20503;-56
2022/12/05 14:28:03;;;;;;;10.88;3.97;;;;;;;;;;5010245;28;20045;-57
2022/12/05 14:30:39;;;;;;;7.68;3.03;;;;;;;;;;5017406;28;20056;-55
2022/12/05 14:33:12;;;;;;;6.38;3.33;;;;;;;;;;5017585;28;20080;-56
2022/12/05 14:35:50;;;;;;;8.32;3.55;;;;;;;;;;5017518;28;20065;-56
2022/12/05 14:38:27;;;;;;;7.90;3.85;;;;;;;;;;5012617;28;20046;-56
2022/12/05 14:40:54;;;;;;;7.95;3.13;;;;;;;;;;5014793;28;20092;-56
2022/12/05 14:43:32;;;;;;;5.45;2.75;;;;;;;;;;5013780;28;20045;-57
2022/12/05 14:46:00;;;;;;;6.55;3.22;;;;;;;;;;5015318;28;20053;-57
2022/12/05 14:48:29;;;;;;;5.55;2.80;;;;;;;;;;5015950;28;20170;-56
2022/12/05 14:50:56;;;;;;;4.25;2.47;;;;;;;;;;5019223;28;20064;-56
2022/12/05 14:53:26;;;;;;;6.38;2.85;;;;;;;;;;5016995;28;20049;-56
2022/12/05 14:55:58;;;;;;;7.20;3.40;;;;;;;;;;5009202;28;20137;-56
2022/12/05 14:58:40;;;;;;;8.10;3.47;;;;;;;;;;5014524;28;20049;-56
2022/12/05 15:01:11;;;;;;;10.02;3.53;;;;;;;;;;5010213;28;20599;-58
2022/12/05 15:03:40;;;;;;;4.97;2.28;;;;;;;;;;5014131;28;20103;-55
2022/12/05 15:06:14;;;;;;;6.72;3.00;;;;;;;;;;5020831;28;20662;-56
2022/12/05 15:08:45;;;;;;;6.22;3.03;;;;;;;;;;5017738;28;20059;-56
2022/12/05 15:11:26;;;;;;;7.28;2.97;;;;;;;;;;5011602;28;20057;-57
2022/12/05 15:13:55;;;;;;;7.80;3.08;;;;;;;;;;5015816;28;20054;-57
2022/12/05 15:16:22;;;;;;;7.10;2.70;;;;;;;;;;5016983;28;20045;-56
2022/12/05 15:18:50;;;;;;;6.47;2.80;;;;;;;;;;5015698;28;20073;-57
2022/12/05 15:21:25;;;;;;;6.45;2.67;;;;;;;;;;5018985;28;20495;-57
2022/12/05 15:23:59;;;;;;;8.77;3.37;;;;;;;;;;5010698;28;20125;-56